createdAt,value
2017-07-05T00:00:55.547Z,100677
2017-07-05T00:03:23.751Z,100678
2017-07-05T00:05:51.916Z,100680
2017-07-05T00:08:20.083Z,100678
2017-07-05T00:10:48.333Z,100671
2017-07-05T00:13:16.494Z,100674
2017-07-05T00:15:44.716Z,100667
2017-07-05T00:18:12.883Z,100675
2017-07-05T00:20:41.050Z,100662
2017-07-05T00:23:09.231Z,100663
2017-07-05T00:25:37.455Z,100668
2017-07-05T00:28:05.638Z,100667
2017-07-05T00:30:33.826Z,100657
2017-07-05T00:33:02.031Z,100653
2017-07-05T00:35:30.209Z,100659
2017-07-05T00:37:59.169Z,100658
2017-07-05T00:40:27.365Z,100660
2017-07-05T00:42:55.560Z,100654
2017-07-05T00:45:24.510Z,100655
2017-07-05T00:47:52.736Z,100652
2017-07-05T00:50:20.905Z,100655
2017-07-05T00:52:49.124Z,100658
2017-07-05T00:55:17.321Z,100658
2017-07-05T00:57:45.552Z,100652
2017-07-05T01:00:13.756Z,100658
2017-07-05T01:02:41.951Z,100669
2017-07-05T01:05:11.008Z,100672
2017-07-05T01:07:39.377Z,100669
2017-07-05T01:10:07.554Z,100676
2017-07-05T01:12:35.898Z,100668
2017-07-05T01:15:04.084Z,100659
2017-07-05T01:17:32.259Z,100664
2017-07-05T01:20:00.511Z,100666
2017-07-05T01:22:28.682Z,100659
2017-07-05T01:24:56.911Z,100661
2017-07-05T01:27:25.366Z,100658
2017-07-05T01:29:53.534Z,100656
2017-07-05T01:32:21.694Z,100654
2017-07-05T01:34:50.037Z,100648
2017-07-05T01:37:18.248Z,100652
2017-07-05T01:39:46.419Z,100649
2017-07-05T01:42:14.728Z,100651
2017-07-05T01:44:42.885Z,100654
2017-07-05T01:47:11.161Z,100649
2017-07-05T01:49:39.461Z,100641
2017-07-05T01:52:07.636Z,100653
2017-07-05T01:54:35.835Z,100643
2017-07-05T01:57:04.829Z,100648
2017-07-05T01:59:33.803Z,100645
2017-07-05T02:02:02.040Z,100644
2017-07-05T02:04:30.275Z,100647
2017-07-05T02:06:59.200Z,100632
2017-07-05T02:09:27.392Z,100635
2017-07-05T02:11:55.623Z,100631
2017-07-05T02:14:24.636Z,100628
2017-07-05T02:16:52.891Z,100635
2017-07-05T02:19:21.909Z,100635
2017-07-05T02:21:50.078Z,100627
2017-07-05T02:24:18.330Z,100630
2017-07-05T02:26:46.519Z,100630
2017-07-05T02:29:14.730Z,100620
2017-07-05T02:31:43.067Z,100625
2017-07-05T02:34:11.255Z,100619
2017-07-05T02:36:39.526Z,100613
2017-07-05T02:39:07.716Z,100609
2017-07-05T02:41:35.917Z,100606
2017-07-05T02:44:04.246Z,100617
2017-07-05T02:46:32.507Z,100614
2017-07-05T02:49:00.739Z,100617
2017-07-05T02:51:29.003Z,100617
2017-07-05T02:53:57.182Z,100620
2017-07-05T02:56:25.413Z,100614
2017-07-05T02:58:53.657Z,100621
2017-07-05T03:01:22.612Z,100616
2017-07-05T03:03:50.817Z,100623
2017-07-05T03:06:19.819Z,100618
2017-07-05T03:08:48.819Z,100617
2017-07-05T03:11:17.019Z,100611
2017-07-05T03:13:45.220Z,100605
2017-07-05T03:16:13.395Z,100611
2017-07-05T03:18:41.564Z,100607
2017-07-05T03:21:09.771Z,100593
2017-07-05T03:23:38.785Z,100598
2017-07-05T03:26:06.970Z,100593
2017-07-05T03:28:35.239Z,100601
2017-07-05T03:31:03.416Z,100598
2017-07-05T03:33:31.699Z,100598
2017-07-05T03:36:00.010Z,100593
2017-07-05T03:38:28.195Z,100603
2017-07-05T03:40:57.239Z,100599
2017-07-05T03:43:25.504Z,100601
2017-07-05T03:45:53.686Z,100598
2017-07-05T03:48:22.016Z,100599
2017-07-05T03:50:50.307Z,100601
2017-07-05T03:53:18.604Z,100603
2017-07-05T03:55:46.804Z,100606
2017-07-05T03:58:14.983Z,100603
2017-07-05T04:00:43.155Z,100605
2017-07-05T04:03:11.447Z,100605
2017-07-05T04:05:39.617Z,100604
2017-07-05T04:08:07.823Z,100602
2017-07-05T04:10:36.130Z,100602
2017-07-05T04:13:04.296Z,100603
2017-07-05T04:15:32.459Z,100607
2017-07-05T04:18:00.669Z,100599
2017-07-05T04:20:28.847Z,100595
2017-07-05T04:22:57.034Z,100592
2017-07-05T04:25:25.232Z,100591
2017-07-05T04:27:54.285Z,100596
2017-07-05T04:30:22.566Z,100595
2017-07-05T04:32:50.768Z,100593
2017-07-05T04:35:19.729Z,100593
2017-07-05T04:37:47.955Z,100600
2017-07-05T04:40:16.188Z,100602
2017-07-05T04:42:44.464Z,100599
2017-07-05T04:45:12.764Z,100612
2017-07-05T04:47:41.720Z,100601
2017-07-05T04:50:09.953Z,100608
2017-07-05T04:52:39.186Z,100609
2017-07-05T04:55:07.395Z,100597
2017-07-05T04:57:36.346Z,100597
2017-07-05T05:00:04.553Z,100596
2017-07-05T05:02:33.528Z,100593
2017-07-05T05:05:01.749Z,100592
2017-07-05T05:07:29.927Z,100602
2017-07-05T05:09:58.096Z,100600
2017-07-05T05:12:26.345Z,100605
2017-07-05T05:14:55.265Z,100605
2017-07-05T05:17:23.490Z,100607
2017-07-05T05:19:51.649Z,100599
2017-07-05T05:22:19.856Z,100609
2017-07-05T05:24:48.803Z,100614
2017-07-05T05:27:17.009Z,100614
2017-07-05T05:29:45.158Z,100611
2017-07-05T05:32:13.375Z,100606
2017-07-05T05:34:42.403Z,100608
2017-07-05T05:37:11.286Z,100623
2017-07-05T05:39:39.477Z,100620
2017-07-05T05:42:07.764Z,100622
2017-07-05T05:44:35.943Z,100619
2017-07-05T05:47:04.182Z,100624
2017-07-05T05:49:32.359Z,100629
2017-07-05T05:52:00.527Z,100617
2017-07-05T05:54:28.748Z,100618
2017-07-05T05:56:56.979Z,100626
2017-07-05T05:59:25.167Z,100623
2017-07-05T06:01:53.375Z,100627
2017-07-05T06:04:22.331Z,100622
2017-07-05T06:06:50.586Z,100626
2017-07-05T06:09:18.782Z,100627
2017-07-05T06:11:46.985Z,100634
2017-07-05T06:14:15.212Z,100629
2017-07-05T06:16:43.428Z,100635
2017-07-05T06:19:11.626Z,100631
2017-07-05T06:21:40.596Z,100642
2017-07-05T06:24:09.551Z,100646
2017-07-05T06:26:37.750Z,100642
2017-07-05T06:29:06.809Z,100634
2017-07-05T06:31:34.982Z,100652
2017-07-05T06:34:03.156Z,100647
2017-07-05T06:36:31.500Z,100641
2017-07-05T06:39:00.440Z,100640
2017-07-05T06:41:28.623Z,100652
2017-07-05T06:43:56.838Z,100655
2017-07-05T06:46:25.791Z,100651
2017-07-05T06:48:53.957Z,100652
2017-07-05T06:51:22.155Z,100650
2017-07-05T06:53:51.114Z,100657
2017-07-05T06:56:19.310Z,100649
2017-07-05T06:58:47.569Z,100649
2017-07-05T07:01:15.813Z,100651
2017-07-05T07:03:44.176Z,100650
2017-07-05T07:06:12.495Z,100654
2017-07-05T07:08:40.669Z,100650
2017-07-05T07:11:09.013Z,100657
2017-07-05T07:13:37.172Z,100658
2017-07-05T07:16:05.345Z,100653
2017-07-05T07:18:33.659Z,100649
2017-07-05T07:21:01.834Z,100655
2017-07-05T07:23:30.056Z,100648
2017-07-05T07:25:58.233Z,100644
2017-07-05T07:28:26.424Z,100647
2017-07-05T07:30:54.666Z,100646
2017-07-05T07:33:22.897Z,100647
2017-07-05T07:35:51.105Z,100649
2017-07-05T07:38:20.143Z,100645
2017-07-05T07:40:48.308Z,100646
2017-07-05T07:43:16.589Z,100653
2017-07-05T07:45:44.783Z,100655
2017-07-05T07:48:13.070Z,100650
2017-07-05T07:50:41.361Z,100652
2017-07-05T07:53:09.552Z,100655
2017-07-05T07:55:38.544Z,100664
2017-07-05T07:58:07.511Z,100664
2017-07-05T08:00:35.700Z,100660
2017-07-05T08:03:04.716Z,100661
2017-07-05T08:05:33.064Z,100657
2017-07-05T08:08:01.242Z,100655
2017-07-05T08:10:30.257Z,100651
2017-07-05T08:12:58.441Z,100655
2017-07-05T08:15:26.666Z,100655
2017-07-05T08:17:54.826Z,100649
2017-07-05T08:20:23.004Z,100658
2017-07-05T08:22:51.252Z,100659
2017-07-05T08:25:19.409Z,100658
2017-07-05T08:27:47.592Z,100657
2017-07-05T08:30:15.824Z,100653
2017-07-05T08:32:44.002Z,100655
2017-07-05T08:35:12.958Z,100653
2017-07-05T08:37:41.280Z,100656
2017-07-05T08:40:09.483Z,100652
2017-07-05T08:42:37.695Z,100655
2017-07-05T08:45:05.926Z,100639
2017-07-05T08:47:34.099Z,100641
2017-07-05T08:50:02.316Z,100643
2017-07-05T08:52:30.529Z,100648
2017-07-05T08:54:58.715Z,100644
2017-07-05T08:57:26.890Z,100643
2017-07-05T08:59:55.112Z,100651
2017-07-05T09:02:23.376Z,100651
2017-07-05T09:04:51.571Z,100645
2017-07-05T09:07:20.578Z,100641
2017-07-05T09:09:48.847Z,100645
2017-07-05T09:12:17.799Z,100642
2017-07-05T09:14:45.989Z,100639
2017-07-05T09:17:14.179Z,100630
2017-07-05T09:19:43.209Z,100634
2017-07-05T09:22:11.370Z,100637
2017-07-05T09:24:39.544Z,100638
2017-07-05T09:27:07.749Z,100644
2017-07-05T09:29:35.933Z,100633
2017-07-05T09:32:04.146Z,100639
2017-07-05T09:34:33.170Z,100641
2017-07-05T09:37:01.327Z,100638
2017-07-05T09:39:29.546Z,100633
2017-07-05T09:41:58.443Z,100636
2017-07-05T09:44:26.632Z,100633
2017-07-05T09:46:55.675Z,100626
2017-07-05T09:49:23.839Z,100617
2017-07-05T09:51:52.020Z,100619
2017-07-05T09:54:20.244Z,100621
2017-07-05T09:56:49.205Z,100633
2017-07-05T09:59:17.389Z,100627
2017-07-05T10:01:45.611Z,100637
2017-07-05T10:04:13.937Z,100638
2017-07-05T10:06:42.197Z,100633
2017-07-05T10:09:10.443Z,100630
2017-07-05T10:11:38.667Z,100634
2017-07-05T10:14:06.864Z,100631
2017-07-05T10:16:35.852Z,100633
2017-07-05T10:19:04.772Z,100628
2017-07-05T10:21:32.947Z,100628
2017-07-05T10:24:01.148Z,100630
2017-07-05T10:26:29.399Z,100640
2017-07-05T10:28:57.646Z,100626
2017-07-05T10:31:26.603Z,100630
2017-07-05T10:33:54.882Z,100626
2017-07-05T10:36:23.096Z,100627
2017-07-05T10:38:51.277Z,100619
2017-07-05T10:41:19.455Z,100623
2017-07-05T10:43:47.733Z,100626
2017-07-05T10:46:15.911Z,100620
2017-07-05T10:48:44.121Z,100616
2017-07-05T10:51:12.304Z,100622
2017-07-05T10:53:40.572Z,100613
2017-07-05T10:56:08.760Z,100610
2017-07-05T10:58:37.020Z,100604
2017-07-05T11:01:05.331Z,100603
2017-07-05T11:03:33.544Z,100597
2017-07-05T11:06:01.752Z,100598
2017-07-05T11:08:30.032Z,100598
2017-07-05T11:10:58.998Z,100588
2017-07-05T11:13:27.207Z,100596
2017-07-05T11:15:56.163Z,100592
2017-07-05T11:18:24.326Z,100581
2017-07-05T11:20:52.557Z,100586
2017-07-05T11:23:20.739Z,100573
2017-07-05T11:25:48.902Z,100582
2017-07-05T11:28:17.179Z,100583
2017-07-05T11:30:45.477Z,100586
2017-07-05T11:33:13.667Z,100570
2017-07-05T11:35:41.842Z,100571
2017-07-05T11:38:10.585Z,100572
2017-07-05T11:40:38.780Z,100558
2017-07-05T11:43:06.979Z,100564
2017-07-05T11:45:35.218Z,100556
2017-07-05T11:48:03.636Z,100560
2017-07-05T11:50:31.835Z,100559
2017-07-05T11:52:59.988Z,100555
2017-07-05T11:55:28.196Z,100560
2017-07-05T11:57:56.383Z,100555
2017-07-05T12:00:24.560Z,100549
2017-07-05T12:02:52.810Z,100550
2017-07-05T12:05:21.769Z,100549
2017-07-05T12:07:49.947Z,100545
2017-07-05T12:10:18.316Z,100539
2017-07-05T12:12:46.641Z,100542
2017-07-05T12:15:14.865Z,100538
2017-07-05T12:17:43.050Z,100544
2017-07-05T12:20:11.346Z,100551
2017-07-05T12:22:40.376Z,100535
2017-07-05T12:25:08.572Z,100536
2017-07-05T12:27:36.761Z,100531
2017-07-05T12:30:04.963Z,100520
2017-07-05T12:32:33.375Z,100521
2017-07-05T12:35:01.555Z,100511
2017-07-05T12:37:29.756Z,100512
2017-07-05T12:39:58.062Z,100517
2017-07-05T12:42:27.041Z,100523
2017-07-05T12:44:55.222Z,100521
2017-07-05T12:47:24.220Z,100514
2017-07-05T12:49:53.195Z,100513
2017-07-05T12:52:22.159Z,100521
2017-07-05T12:54:50.355Z,100522
2017-07-05T12:57:18.572Z,100523
2017-07-05T12:59:46.763Z,100519
2017-07-05T13:02:15.169Z,100523
2017-07-05T13:04:43.406Z,100515
2017-07-05T13:07:11.653Z,100513
2017-07-05T13:09:40.673Z,100502
2017-07-05T13:12:08.859Z,100506
2017-07-05T13:14:37.085Z,100505
2017-07-05T13:17:06.074Z,100507
2017-07-05T13:19:35.041Z,100506
2017-07-05T13:22:03.203Z,100494
2017-07-05T13:24:31.420Z,100499
2017-07-05T13:27:00.381Z,100504
2017-07-05T13:29:28.570Z,100509
2017-07-05T13:31:57.541Z,100506
2017-07-05T13:34:25.740Z,100508
2017-07-05T13:36:54.773Z,100509
2017-07-05T13:39:22.962Z,100499
2017-07-05T13:41:51.221Z,100496
2017-07-05T13:44:19.422Z,100503
2017-07-05T13:46:47.580Z,100514
2017-07-05T13:49:15.830Z,100511
2017-07-05T13:51:44.055Z,100518
2017-07-05T13:54:12.251Z,100507
2017-07-05T13:56:41.198Z,100505
2017-07-05T13:59:09.414Z,100505
2017-07-05T14:01:38.361Z,100505
2017-07-05T14:04:06.520Z,100499
2017-07-05T14:06:34.749Z,100499
2017-07-05T14:09:03.760Z,100498
2017-07-05T14:11:31.943Z,100493
2017-07-05T14:14:00.167Z,100494
2017-07-05T14:16:28.401Z,100497
2017-07-05T14:18:57.715Z,100496
2017-07-05T14:21:25.884Z,100488
2017-07-05T14:23:54.070Z,100483
2017-07-05T14:26:22.674Z,100484
2017-07-05T14:28:51.652Z,100487
2017-07-05T14:31:19.876Z,100484
2017-07-05T14:33:48.114Z,100480
2017-07-05T14:36:16.290Z,100476
2017-07-05T14:38:44.548Z,100476
2017-07-05T14:41:12.778Z,100473
2017-07-05T14:43:40.983Z,100474
2017-07-05T14:46:09.216Z,100464
2017-07-05T14:48:37.484Z,100472
2017-07-05T14:51:06.464Z,100472
2017-07-05T14:53:35.548Z,100470
2017-07-05T14:56:03.799Z,100474
2017-07-05T14:58:31.997Z,100467
2017-07-05T15:01:00.209Z,100461
2017-07-05T15:03:28.377Z,100465
2017-07-05T15:05:56.562Z,100466
2017-07-05T15:08:24.969Z,100467
2017-07-05T15:10:53.177Z,100462
2017-07-05T15:13:22.113Z,100461
2017-07-05T15:15:50.363Z,100468
2017-07-05T15:18:18.523Z,100469
2017-07-05T15:20:46.711Z,100473
2017-07-05T15:23:14.929Z,100465
2017-07-05T15:25:43.140Z,100472
2017-07-05T15:28:11.363Z,100469
2017-07-05T15:30:39.689Z,100472
2017-07-05T15:33:08.642Z,100466
2017-07-05T15:35:36.988Z,100468
2017-07-05T15:38:05.265Z,100475
2017-07-05T15:40:33.451Z,100476
2017-07-05T15:43:01.643Z,100470
2017-07-05T15:45:29.853Z,100452
2017-07-05T15:47:58.799Z,100469
2017-07-05T15:50:26.979Z,100467
2017-07-05T15:52:55.248Z,100459
2017-07-05T15:55:23.441Z,100454
2017-07-05T15:57:51.636Z,100459
2017-07-05T16:00:20.595Z,100455
2017-07-05T16:02:48.760Z,100445
2017-07-05T16:05:16.959Z,100451
2017-07-05T16:07:45.159Z,100450
2017-07-05T16:10:13.339Z,100441
2017-07-05T16:12:41.509Z,100454
2017-07-05T16:15:09.725Z,100435
2017-07-05T16:17:37.912Z,100437
2017-07-05T16:20:06.121Z,100439
2017-07-05T16:22:34.327Z,100440
2017-07-05T16:25:02.490Z,100434
2017-07-05T16:27:30.661Z,100436
2017-07-05T16:29:58.922Z,100430
2017-07-05T16:32:27.124Z,100429
2017-07-05T16:34:55.314Z,100435
2017-07-05T16:37:23.524Z,100428
2017-07-05T16:39:52.561Z,100435
2017-07-05T16:42:20.777Z,100429
2017-07-05T16:44:49.050Z,100434
2017-07-05T16:47:17.273Z,100434
2017-07-05T16:49:45.471Z,100423
2017-07-05T16:52:13.785Z,100424
2017-07-05T16:54:42.800Z,100417
2017-07-05T16:57:11.087Z,100414
2017-07-05T16:59:39.322Z,100411
2017-07-05T17:02:08.256Z,100415
2017-07-05T17:04:36.512Z,100410
2017-07-05T17:07:04.742Z,100415
2017-07-05T17:09:32.920Z,100418
2017-07-05T17:12:01.150Z,100416
2017-07-05T17:14:29.376Z,100411
2017-07-05T17:16:57.647Z,100414
2017-07-05T17:19:25.858Z,100416
2017-07-05T17:21:54.060Z,100422
2017-07-05T17:24:22.225Z,100426
2017-07-05T17:26:50.489Z,100423
2017-07-05T17:29:18.676Z,100419
2017-07-05T17:31:46.861Z,100426
2017-07-05T17:34:15.072Z,100433
2017-07-05T17:36:44.048Z,100427
2017-07-05T17:39:12.350Z,100432
2017-07-05T17:41:41.355Z,100428
2017-07-05T17:44:09.535Z,100424
2017-07-05T17:46:37.825Z,100426
2017-07-05T17:49:06.048Z,100433
2017-07-05T17:51:34.302Z,100432
2017-07-05T17:54:02.528Z,100438
2017-07-05T17:56:30.782Z,100436
2017-07-05T17:58:59.813Z,100429
2017-07-05T18:01:28.068Z,100431
2017-07-05T18:03:56.235Z,100437
2017-07-05T18:06:24.419Z,100437
2017-07-05T18:08:52.630Z,100442
2017-07-05T18:11:20.817Z,100438
2017-07-05T18:13:49.053Z,100439
2017-07-05T18:16:17.241Z,100434
2017-07-05T18:18:45.453Z,100434
2017-07-05T18:21:13.729Z,100435
2017-07-05T18:23:42.705Z,100442
2017-07-05T18:26:10.909Z,100446
2017-07-05T18:28:39.127Z,100440
2017-07-05T18:31:08.313Z,100441
2017-07-05T18:33:36.674Z,100439
2017-07-05T18:36:04.978Z,100437
2017-07-05T18:38:33.349Z,100432
2017-07-05T18:41:01.690Z,100439
2017-07-05T18:43:29.863Z,100440
2017-07-05T18:45:58.062Z,100435
2017-07-05T18:48:26.264Z,100440
2017-07-05T18:50:54.436Z,100436
2017-07-05T18:53:22.667Z,100447
2017-07-05T18:55:51.083Z,100446
2017-07-05T18:58:19.272Z,100446
2017-07-05T19:00:47.556Z,100445
2017-07-05T19:03:16.640Z,100450
2017-07-05T19:05:44.841Z,100456
2017-07-05T19:08:13.237Z,100458
2017-07-05T19:10:41.448Z,100466
2017-07-05T19:13:09.635Z,100467
2017-07-05T19:15:37.887Z,100461
2017-07-05T19:18:06.169Z,100465
2017-07-05T19:20:34.403Z,100470
2017-07-05T19:23:02.582Z,100473
2017-07-05T19:25:30.867Z,100471
2017-07-05T19:27:59.149Z,100467
2017-07-05T19:30:27.600Z,100470
2017-07-05T19:32:56.609Z,100469
2017-07-05T19:35:24.833Z,100472
2017-07-05T19:37:53.067Z,100472
2017-07-05T19:40:21.369Z,100478
2017-07-05T19:42:49.577Z,100478
2017-07-05T19:45:18.611Z,100478
2017-07-05T19:47:46.867Z,100476
2017-07-05T19:50:15.066Z,100479
2017-07-05T19:52:44.180Z,100493
2017-07-05T19:55:12.761Z,100494
2017-07-05T19:57:40.944Z,100497
2017-07-05T20:00:09.314Z,100503
2017-07-05T20:02:37.646Z,100508
2017-07-05T20:05:05.832Z,100516
2017-07-05T20:07:34.074Z,100520
2017-07-05T20:10:03.061Z,100517
2017-07-05T20:12:32.058Z,100511
2017-07-05T20:15:01.035Z,100522
2017-07-05T20:17:30.016Z,100520
2017-07-05T20:19:58.191Z,100526
2017-07-05T20:22:26.409Z,100527
2017-07-05T20:24:54.599Z,100531
2017-07-05T20:27:22.908Z,100528
2017-07-05T20:29:51.111Z,100535
2017-07-05T20:32:20.213Z,100537
2017-07-05T20:34:48.719Z,100537
2017-07-05T20:37:16.895Z,100544
2017-07-05T20:39:45.085Z,100538
2017-07-05T20:42:13.296Z,100547
2017-07-05T20:44:42.322Z,100541
2017-07-05T20:47:10.531Z,100550
2017-07-05T20:49:38.965Z,100549
2017-07-05T20:52:07.162Z,100548
2017-07-05T20:54:35.327Z,100551
2017-07-05T20:57:03.616Z,100561
2017-07-05T20:59:32.898Z,100567
2017-07-05T21:02:01.448Z,100564
2017-07-05T21:04:30.437Z,100572
2017-07-05T21:06:59.480Z,100563
2017-07-05T21:09:27.841Z,100556
2017-07-05T21:11:56.316Z,100561
2017-07-05T21:14:24.602Z,100558
2017-07-05T21:16:52.853Z,100559
2017-07-05T21:19:21.826Z,100568
2017-07-05T21:21:50.812Z,100571
2017-07-05T21:24:19.139Z,100564
2017-07-05T21:26:47.352Z,100564
2017-07-05T21:29:15.549Z,100571
2017-07-05T21:31:44.547Z,100572
2017-07-05T21:34:13.502Z,100570
2017-07-05T21:36:41.697Z,100573
2017-07-05T21:39:10.887Z,100568
2017-07-05T21:41:39.073Z,100570
2017-07-05T21:44:07.312Z,100572
2017-07-05T21:46:35.585Z,100579
2017-07-05T21:49:03.788Z,100575
2017-07-05T21:51:32.829Z,100580
2017-07-05T21:54:01.061Z,100579
2017-07-05T21:56:29.239Z,100571
2017-07-05T21:58:57.457Z,100570
2017-07-05T22:01:25.692Z,100569
2017-07-05T22:03:54.760Z,100569
2017-07-05T22:06:23.015Z,100578
2017-07-05T22:08:51.229Z,100573
2017-07-05T22:11:20.259Z,100575
2017-07-05T22:13:48.460Z,100567
2017-07-05T22:16:16.633Z,100568
2017-07-05T22:18:44.909Z,100571
2017-07-05T22:21:13.161Z,100574
2017-07-05T22:23:41.345Z,100571
2017-07-05T22:26:09.532Z,100568
2017-07-05T22:28:37.727Z,100564
2017-07-05T22:31:07.177Z,100563
2017-07-05T22:33:35.337Z,100570
2017-07-05T22:36:03.564Z,100562
2017-07-05T22:38:31.765Z,100564
2017-07-05T22:41:00.818Z,100564
2017-07-05T22:43:29.025Z,100564
2017-07-05T22:45:57.985Z,100565
2017-07-05T22:48:26.224Z,100570
2017-07-05T22:50:54.418Z,100562
2017-07-05T22:53:22.601Z,100570
2017-07-05T22:55:50.827Z,100572
2017-07-05T22:58:19.009Z,100575
2017-07-05T23:00:47.308Z,100570
2017-07-05T23:03:15.509Z,100574
2017-07-05T23:05:43.735Z,100570
2017-07-05T23:08:11.940Z,100576
2017-07-05T23:10:40.125Z,100571
2017-07-05T23:13:08.503Z,100569
2017-07-05T23:15:36.745Z,100563
2017-07-05T23:18:04.961Z,100567
2017-07-05T23:20:33.166Z,100570
2017-07-05T23:23:01.392Z,100567
2017-07-05T23:25:29.617Z,100566
2017-07-05T23:27:58.557Z,100566
2017-07-05T23:30:26.761Z,100565
2017-07-05T23:32:55.751Z,100564
2017-07-05T23:35:23.976Z,100570
2017-07-05T23:37:52.256Z,100563
2017-07-05T23:40:20.443Z,100570
2017-07-05T23:42:48.779Z,100572
2017-07-05T23:45:17.060Z,100576
2017-07-05T23:47:45.256Z,100569
2017-07-05T23:50:13.453Z,100572
2017-07-05T23:52:41.728Z,100578
2017-07-05T23:55:09.900Z,100571
2017-07-05T23:57:38.075Z,100576
